Date,TemperatureHighF,TemperatureAvgF,TemperatureLowF,DewpointHighF,DewpointAvgF,DewpointLowF,HumidityHigh,HumidityAvg,HumidityLow,PressureMaxIn,PressureMinIn,WindSpeedMaxMPH,WindSpeedAvgMPH,GustSpeedMaxMPH,PrecipitationSumIn
2014-1-1,22.4,18.2,14.1,14.6,11.0,8.1,90,74,59,30.41,30.25,9,5,14,0.00
2014-1-2,14.9,11.3,7.4,12.7,8.9,4.8,91,90,89,30.32,29.99,17,8,21,0.00
2014-1-3,9.1,3.2,-7.1,5.5,0.2,-10.7,89,87,83,30.46,30.02,13,5,17,0.00
2014-1-4,39.0,21.1,-4.1,26.2,13.4,-7.5,89,73,52,30.39,30.03,9,6,15,0.00
2014-1-5,42.6,32.2,24.7,39.6,22.2,13.9,92,67,55,30.15,29.45,13,6,18,0.00
2014-1-6,45.6,27.5,3.9,43.1,21.3,-2.2,92,77,56,29.79,29.23,17,11,26,0.00
2014-1-7,6.8,3.2,-1.7,0.0,-5.0,-8.5,85,69,57,30.30,29.80,16,11,25,0.00
2014-1-8,20.3,13.9,6.0,12.7,5.8,-2.4,84,70,59,30.47,30.30,7,3,25,0.00
2014-1-9,25.9,20.7,15.9,16.5,12.8,10.1,84,71,57,30.67,30.40,6,4,10,0.00
2014-1-10,39.1,33.5,25.3,35.6,29.3,16.5,94,85,69,30.41,29.98,10,4,15,0.00
2014-1-11,51.7,44.8,37.5,47.6,41.4,33.3,94,88,79,29.98,29.22,15,8,21,0.00
2014-1-12,37.7,34.8,30.0,33.3,30.1,26.3,87,83,79,29.97,29.44,13,6,21,0.00
2014-1-13,50.5,41.6,29.4,41.4,32.3,26.0,89,70,54,29.95,29.66,10,5,19,0.00
2014-1-14,45.5,39.2,27.0,41.1,35.3,24.5,95,86,76,29.84,29.64,5,2,13,0.00
2014-1-15,38.2,32.0,26.7,32.4,26.8,21.8,94,81,62,29.99,29.77,8,4,17,0.00
2014-1-16,34.3,29.7,23.3,23.1,20.6,16.1,90,69,50,29.98,29.84,6,3,10,0.00
2014-1-17,39.7,32.3,23.5,27.2,23.1,20.5,91,69,54,29.86,29.78,9,4,11,0.00
2014-1-18,28.9,22.7,14.6,27.4,18.9,11.1,94,85,74,29.90,29.80,10,5,16,0.00
2014-1-19,31.6,24.4,15.1,24.7,17.9,11.7,89,76,64,29.86,29.47,12,6,25,0.00
2014-1-20,32.1,23.2,11.8,28.8,18.2,5.0,93,81,70,30.03,29.51,10,6,18,0.00
2014-1-21,11.7,5.8,2.8,5.7,1.3,-1.2,86,81,72,30.17,30.03,9,4,11,0.00
2014-1-22,8.0,0.9,-8.4,0.8,-4.2,-12.4,87,79,67,30.14,30.05,8,2,11,0.00
2014-1-23,15.1,8.3,-0.6,9.8,3.2,-4.5,87,79,71,30.35,30.07,7,4,13,0.00
2014-1-24,18.9,11.2,1.8,4.1,0.7,-2.9,84,64,45,30.39,29.75,11,7,16,0.00
2014-1-25,28.1,21.1,10.9,21.5,12.6,1.5,92,70,46,29.74,29.25,11,8,23,0.00
2014-1-26,24.9,13.4,7.1,19.3,5.7,-1.0,81,71,56,29.79,29.49,9,6,23,0.00
2014-1-27,38.0,18.5,6.0,31.7,10.0,-5.6,92,69,53,30.13,29.26,15,9,30,0.00
2014-1-28,10.7,4.9,0.8,-2.6,-6.2,-9.8,69,60,52,30.36,30.14,10,6,30,0.00
2014-1-29,17.4,9.4,1.6,7.2,-1.2,-10.5,73,62,55,30.28,30.06,13,7,21,0.00
2014-1-30,29.4,19.5,3.7,10.6,5.7,-2.2,77,56,40,30.33,29.89,11,6,19,0.00
2014-1-31,35.2,32.4,27.4,25.6,20.2,9.3,76,61,44,30.18,29.92,7,4,13,0.00
2014-2-1,41.0,32.9,20.8,32.6,26.9,18.3,93,79,63,30.22,29.84,8,3,14,0.00
2014-2-2,39.4,32.5,27.9,36.2,29.3,23.4,92,88,77,30.21,29.84,7,3,13,0.00
2014-2-3,27.8,22.7,12.0,23.5,17.0,9.2,90,79,70,30.39,30.19,8,3,10,0.00
2014-2-4,27.5,22.2,14.3,19.4,15.8,11.4,89,77,59,30.50,30.25,6,2,9,0.00
2014-2-5,24.9,21.6,15.4,23.4,19.6,13.5,95,92,82,30.30,29.73,18,7,24,0.00
2014-2-6,20.4,13.6,1.5,15.1,10.0,-1.2,92,85,74,30.35,30.21,7,3,12,0.00
2014-2-7,19.9,13.6,6.9,14.2,5.6,-0.6,88,71,54,30.31,30.21,11,5,16,0.00
2014-2-8,18.5,10.7,-2.5,8.5,2.9,-6.9,83,71,61,30.37,30.23,7,2,11,0.00
2014-2-9,21.0,15.0,1.5,18.0,11.3,-1.9,92,85,69,30.23,29.97,6,3,10,0.00
2014-2-10,22.7,16.6,11.5,16.3,11.5,5.8,90,80,62,30.33,30.08,10,5,13,0.00
2014-2-11,19.7,13.2,7.6,11.7,7.2,1.6,85,77,58,30.54,30.33,7,4,13,0.00
2014-2-12,24.9,11.2,-9.4,9.1,1.3,-13.4,88,66,48,30.55,30.21,10,4,16,0.00
2014-2-13,27.8,20.5,11.7,22.4,14.7,3.4,94,78,62,30.22,29.50,11,4,16,0.00
2014-2-14,33.5,27.2,23.1,25.3,22.8,20.7,94,84,62,29.74,29.42,10,5,19,0.00
2014-2-15,29.4,25.2,16.3,25.4,21.2,13.1,90,84,78,29.96,29.74,8,4,13,0.00
2014-2-16,19.8,15.2,10.8,15.4,11.1,7.4,89,83,75,30.28,29.96,7,4,14,0.00
2014-2-17,26.2,13.5,-1.3,10.5,4.9,-4.7,88,70,50,30.49,29.97,14,3,19,0.00
2014-2-18,32.2,27.5,19.8,25.4,19.2,10.4,85,71,48,30.06,29.83,18,8,28,0.00
2014-2-19,50.5,37.5,24.2,37.6,29.1,18.6,89,72,56,30.07,29.59,10,6,25,0.00
2014-2-20,42.5,34.5,24.5,34.1,29.9,22.8,95,84,61,30.15,29.80,10,4,15,0.00
2014-2-21,44.5,40.0,35.4,39.8,33.1,25.1,94,77,55,29.79,29.54,9,6,16,0.00
2014-2-22,44.7,40.2,36.9,30.1,22.1,12.5,72,50,27,29.93,29.76,18,10,29,0.00
2014-2-23,42.2,36.0,26.7,29.6,22.6,12.8,74,59,40,29.96,29.87,10,6,19,0.00
2014-2-24,26.9,22.7,18.4,20.8,14.2,10.1,86,70,58,30.09,29.90,13,7,27,0.00
2014-2-25,22.6,19.1,17.1,15.0,12.0,8.2,88,74,58,30.08,29.89,9,5,17,0.00
2014-2-26,18.4,12.7,5.5,14.7,2.5,-3.1,86,64,46,30.00,29.76,12,6,20,0.00
2014-2-27,22.6,12.8,6.0,14.5,4.1,-3.1,85,68,51,30.13,29.54,13,8,23,0.00
2014-2-28,16.8,8.3,2.4,1.9,-1.5,-3.9,80,65,41,30.41,30.13,9,4,18,0.00
2014-3-1,40.6,26.0,11.1,24.8,11.7,0.8,88,56,36,30.28,30.04,9,5,11,0.00
2014-3-2,22.2,17.0,10.7,18.9,10.9,2.9,89,77,64,30.25,30.16,7,4,10,0.00
2014-3-3,14.8,10.0,4.2,6.6,3.1,-3.4,86,74,59,30.43,30.22,8,4,12,0.00
2014-3-4,19.9,11.6,0.7,13.4,3.7,-6.2,89,70,52,30.43,30.27,5,2,11,0.00
2014-3-5,22.2,16.4,1.5,16.4,11.4,-1.7,90,81,63,30.62,30.26,13,3,15,0.00
2014-3-6,26.5,11.2,-8.9,7.9,0.5,-12.7,87,64,41,30.69,30.33,8,3,13,0.00
2014-3-7,44.1,30.8,18.8,28.6,19.0,5.2,88,62,50,30.33,29.89,9,4,13,0.00
2014-3-8,38.6,31.7,26.4,31.0,27.7,23.3,92,85,69,30.02,29.85,7,3,11,0.00
2014-3-9,33.9,28.1,22.2,26.8,18.7,15.0,89,69,50,30.14,29.79,8,5,18,0.00
2014-3-10,45.0,39.3,34.1,37.9,30.5,17.8,80,71,51,29.83,29.50,9,4,17,0.00
2014-3-11,53.3,44.5,38.5,37.4,34.9,32.2,81,70,52,29.69,29.51,7,4,17,0.00
2014-3-12,39.3,27.4,13.2,37.0,25.5,11.3,96,93,78,29.70,29.33,23,11,34,0.00
2014-3-13,16.7,12.9,8.4,13.6,10.0,6.1,92,88,80,30.12,29.70,11,7,18,0.00
2014-3-14,54.9,33.8,14.6,37.4,23.0,11.1,87,68,37,30.10,29.59,11,6,15,0.00
2014-3-15,47.6,38.1,25.7,40.3,30.8,17.1,85,75,63,30.14,29.59,12,8,23,0.00
2014-3-16,25.7,19.0,10.5,18.8,10.2,5.4,83,68,57,30.38,30.14,11,6,22,0.00
2014-3-17,26.7,17.5,8.4,14.0,9.2,5.6,89,71,45,30.26,30.08,8,3,19,0.00
2014-3-18,45.1,29.7,13.0,22.5,16.1,9.2,86,60,35,30.18,30.11,9,4,13,0.00
2014-3-19,48.5,39.3,33.6,37.4,27.0,14.7,92,63,33,30.13,29.67,16,8,22,0.00
2014-3-20,43.1,36.8,31.8,39.5,32.2,27.0,89,83,77,29.91,29.65,12,8,23,0.00
2014-3-21,38.3,32.1,29.3,28.4,25.0,21.9,88,75,60,30.09,29.91,9,5,23,0.00
2014-3-22,45.3,36.3,30.2,38.3,29.4,25.7,84,76,61,30.06,29.55,13,8,21,0.00
2014-3-23,33.2,24.0,19.8,29.2,15.8,7.9,89,71,59,30.27,30.05,10,7,20,0.00
2014-3-24,26.0,21.1,15.9,16.9,12.8,9.8,88,71,56,30.29,30.13,7,4,16,0.00
2014-3-25,39.1,26.3,16.0,22.7,15.6,10.5,80,66,35,30.13,29.87,10,4,13,0.00
2014-3-26,26.3,22.2,18.2,18.3,11.8,8.5,86,64,52,30.30,29.98,12,8,17,0.00
2014-3-27,43.7,29.2,15.1,22.9,14.8,8.9,80,57,36,30.35,29.98,10,5,14,0.00
2014-3-28,59.1,44.8,37.0,47.5,36.4,22.5,88,73,48,30.18,29.71,15,7,22,0.00
2014-3-29,40.2,36.0,32.2,36.1,32.6,30.9,95,87,81,30.23,29.91,15,6,20,0.32
2014-3-30,36.5,33.1,30.3,33.0,30.9,29.5,97,92,81,30.06,29.87,14,10,20,0.14
2014-3-31,44.0,35.4,24.9,31.8,28.8,23.7,96,78,58,30.21,30.06,7,2,17,0.00
2014-4-1,56.0,41.2,25.4,39.4,31.9,23.1,94,71,51,30.21,29.80,9,4,14,0.00
2014-4-2,50.5,41.9,30.1,37.7,33.0,27.8,92,71,57,30.20,29.91,10,5,15,0.00
2014-4-3,42.2,35.0,24.2,31.1,27.5,22.5,94,75,60,30.24,30.07,9,4,11,0.00
2014-4-4,51.5,43.2,34.4,45.0,39.2,26.8,94,86,73,30.05,29.50,16,8,22,0.43
2014-4-5,45.0,37.7,32.3,39.5,30.6,26.6,89,75,65,30.15,29.64,13,8,23,0.03
2014-4-6,53.1,39.5,28.1,33.0,27.7,24.3,86,65,35,30.23,30.11,7,2,17,0.00
2014-4-7,49.5,39.6,30.0,39.3,32.3,26.4,94,77,44,30.13,29.51,12,6,19,0.60
2014-4-8,53.3,44.3,39.0,48.4,41.1,35.7,96,89,80,29.70,29.25,13,6,23,0.13
2014-4-9,47.0,39.8,32.0,36.8,29.9,21.7,95,71,38,30.00,29.69,9,4,16,0.00
2014-4-10,71.7,54.0,32.6,48.7,33.9,26.6,81,51,24,30.00,29.69,13,7,22,0.00
2014-4-11,58.0,51.1,38.9,50.7,40.2,27.4,97,69,38,30.03,29.83,8,3,12,0.06
2014-4-12,64.9,52.0,36.0,46.5,40.3,32.2,94,66,38,30.18,30.03,12,4,15,0.00
2014-4-13,83.6,65.2,49.0,56.7,49.6,37.7,84,59,31,30.04,29.74,11,5,18,0.02
2014-4-14,81.0,66.8,56.3,59.3,55.0,51.6,94,68,37,29.78,29.52,14,6,29,0.10
2014-4-15,57.9,37.2,26.9,56.3,34.4,21.1,95,90,76,30.13,29.50,9,6,18,0.23
2014-4-16,37.1,30.3,25.9,23.2,19.5,16.8,79,65,50,30.59,30.12,11,5,15,0.03
2014-4-17,56.4,41.2,25.9,30.3,24.5,18.6,81,54,30,30.64,30.42,14,6,18,0.00
2014-4-18,62.7,48.3,38.9,42.7,35.7,30.2,87,63,42,30.43,30.16,10,6,15,0.00
2014-4-19,49.9,42.1,33.0,41.5,32.5,27.6,89,70,44,30.45,30.25,10,4,15,0.00
2014-4-20,67.8,49.5,27.7,38.0,31.8,26.2,95,57,26,30.45,30.14,8,4,13,0.00
2014-4-21,76.5,61.6,47.9,46.8,39.5,32.5,68,47,21,30.14,29.71,9,3,13,0.00
2014-4-22,63.4,55.5,43.0,56.6,47.6,36.7,93,76,50,29.71,29.50,9,5,17,0.15
2014-4-23,45.8,41.0,37.3,39.6,35.1,23.8,95,81,51,30.00,29.62,10,6,17,0.14
2014-4-24,51.9,42.0,32.4,29.4,25.7,21.6,78,55,31,30.13,30.00,12,5,18,0.00
2014-4-25,65.4,49.1,32.8,46.9,32.8,26.1,93,58,29,30.04,29.60,13,6,18,0.14
2014-4-26,51.1,45.1,41.1,48.6,40.8,36.9,93,85,76,29.97,29.65,11,5,19,0.07
2014-4-27,52.6,44.5,36.4,40.5,35.7,31.9,86,72,50,30.22,29.97,10,4,14,0.00
2014-4-28,56.8,45.5,29.8,38.5,33.9,28.5,96,67,42,30.22,30.00,12,4,15,0.00
2014-4-29,54.5,49.1,45.6,44.8,41.5,36.4,91,76,59,30.16,29.98,17,10,27,0.35
2014-4-30,53.2,49.0,45.0,51.5,45.7,40.5,96,88,82,30.16,29.79,17,8,24,0.77
2014-5-1,60.4,54.4,50.4,55.4,47.2,38.1,98,78,48,29.79,29.71,10,4,20,0.01
2014-5-2,57.6,51.3,48.1,45.2,42.4,40.1,82,72,57,29.81,29.69,11,6,18,0.00
2014-5-3,59.7,53.5,47.8,48.6,45.1,42.3,91,74,58,29.81,29.62,9,4,14,0.17
2014-5-4,56.4,49.1,44.3,42.3,39.2,35.5,81,70,47,29.94,29.66,13,8,23,0.00
2014-5-5,57.3,49.8,40.1,38.9,35.7,28.4,86,61,35,30.04,29.92,9,4,23,0.00
2014-5-6,57.5,50.6,41.0,40.6,37.0,33.5,83,61,42,30.13,29.91,11,4,14,0.00
2014-5-7,62.4,49.2,34.0,40.7,36.4,32.3,95,64,33,30.25,30.11,10,3,12,0.00
2014-5-8,73.7,60.2,45.9,59.5,46.6,36.4,82,62,38,30.12,29.99,10,4,14,0.02
2014-5-9,86.3,69.4,52.0,66.6,57.2,44.1,93,69,34,30.01,29.74,10,3,22,0.14
2014-5-10,73.5,65.6,55.5,62.7,52.1,34.2,94,64,31,29.91,29.74,12,6,22,0.08
2014-5-11,74.0,60.2,47.5,48.0,42.9,37.9,85,56,27,30.08,29.91,6,2,11,0.00
2014-5-12,81.1,66.2,50.3,62.9,52.4,45.4,89,63,45,30.07,29.98,7,2,10,0.00
2014-5-13,84.8,70.6,57.6,69.0,61.4,51.7,93,74,52,30.07,29.93,7,3,13,0.44
2014-5-14,81.1,68.8,62.4,70.8,64.2,59.8,96,86,63,30.09,29.98,9,4,12,0.18
2014-5-15,78.0,70.9,61.7,67.7,63.0,59.5,94,77,57,30.03,29.82,14,7,33,0.17
2014-5-16,61.6,50.8,41.3,59.9,47.8,39.4,97,90,77,29.97,29.83,6,3,11,1.34
2014-5-17,54.2,47.6,41.0,42.7,40.0,36.5,95,76,59,30.17,29.94,6,2,8,0.00
2014-5-18,60.8,51.9,43.7,45.3,41.2,33.4,93,69,39,30.26,30.17,5,2,10,0.00
2014-5-19,67.6,55.3,40.4,51.1,43.8,37.1,94,67,43,30.24,30.13,9,2,13,0.00
2014-5-20,72.6,60.6,48.9,52.5,45.9,40.3,79,60,38,30.17,29.98,7,1,11,0.00
2014-5-21,71.9,63.5,55.6,63.9,56.3,47.9,95,78,65,29.99,29.78,8,3,12,0.00
2014-5-22,73.3,62.6,53.9,64.9,57.5,50.9,98,84,66,29.88,29.75,8,3,14,0.33
2014-5-23,56.7,54.4,52.2,53.9,51.2,49.7,96,89,81,30.03,29.86,5,3,11,0.18
2014-5-24,72.6,60.3,50.9,59.3,52.8,49.3,96,78,47,30.11,30.02,5,2,11,0.00
2014-5-25,77.3,65.3,49.9,55.1,49.3,43.7,92,59,38,30.11,30.01,5,2,12,0.00
2014-5-26,81.9,72.4,62.5,59.4,52.5,43.5,60,50,41,30.01,29.87,10,4,19,0.00
2014-5-27,82.2,73.8,67.6,69.3,61.4,52.8,86,66,55,29.87,29.73,5,3,10,0.00
2014-5-28,69.6,56.7,53.1,65.4,52.7,50.1,92,86,77,30.13,29.77,12,6,18,0.00
2014-5-29,66.1,58.6,50.7,57.4,53.5,49.0,95,84,70,30.14,30.07,7,3,10,0.00
2014-5-30,72.0,60.1,45.4,59.0,52.4,44.6,98,78,52,30.15,30.09,11,2,11,0.00
2014-5-31,69.5,58.8,45.8,53.8,46.7,39.0,98,69,34,30.27,30.15,12,3,18,0.00
2014-6-1,80.5,64.8,43.9,56.5,49.7,42.8,97,63,32,30.28,30.07,6,2,10,0.00
2014-6-2,87.4,73.3,61.3,70.8,62.4,51.1,96,70,48,30.09,29.88,7,2,11,0.22
2014-6-3,83.2,73.5,59.2,71.2,66.0,50.9,96,78,60,29.90,29.70,7,3,11,0.13
2014-6-4,71.7,62.6,51.3,58.1,52.9,49.5,95,72,50,29.88,29.75,6,2,11,0.00
2014-6-5,65.4,56.5,47.1,55.2,50.2,46.0,97,80,64,29.88,29.72,5,2,12,0.00
2014-6-6,70.9,61.1,50.2,55.5,52.4,47.5,93,74,55,29.99,29.88,6,2,13,0.00
2014-6-7,77.3,64.5,49.3,59.6,52.8,47.9,95,69,41,30.05,29.93,8,2,11,0.00
2014-6-8,80.9,65.3,50.9,63.9,56.8,49.8,97,77,46,29.94,29.76,6,2,12,0.25
2014-6-9,72.3,66.5,59.7,64.7,61.7,58.3,97,85,73,29.93,29.85,8,2,12,0.00
2014-6-10,75.8,68.0,62.0,67.4,63.1,58.7,95,85,70,29.95,29.88,9,3,10,0.00
2014-6-11,80.0,70.6,61.4,71.7,65.9,58.1,95,86,69,29.94,29.80,11,6,19,0.03
2014-6-12,74.6,69.1,65.8,69.7,65.4,63.0,93,88,80,29.86,29.77,8,5,16,0.08
2014-6-13,80.9,69.8,59.2,70.3,65.2,52.7,97,86,64,29.86,29.66,6,2,9,0.09
2014-6-14,65.6,57.7,50.1,55.8,50.6,46.5,93,77,62,30.10,29.86,6,3,12,0.01
2014-6-15,70.3,60.9,51.5,58.9,53.9,49.8,96,79,61,30.20,30.08,7,2,9,0.00
2014-6-16,84.8,68.2,49.2,70.8,60.7,48.4,98,79,51,30.11,29.94,7,2,10,0.00
2014-6-17,87.2,74.3,61.7,73.0,66.6,60.7,98,79,50,30.04,29.70,13,2,14,0.11
2014-6-18,75.3,70.3,66.4,69.0,65.4,62.8,95,85,72,30.00,29.77,8,3,12,0.07
2014-6-19,72.2,66.6,52.3,65.6,53.5,38.4,96,67,30,30.11,29.98,10,4,13,0.00
2014-6-20,69.8,59.6,46.5,54.3,48.5,40.8,97,70,39,30.10,29.99,7,2,11,0.02
2014-6-21,73.4,61.3,46.6,57.1,50.6,45.5,97,71,44,30.01,29.91,9,2,12,0.00
2014-6-22,78.2,63.8,49.5,57.2,51.9,48.4,97,69,37,29.99,29.94,8,2,11,0.00
2014-6-23,83.4,69.9,50.9,67.8,60.0,49.8,97,73,51,30.02,29.91,6,2,9,0.00
2014-6-24,87.0,75.0,69.5,73.7,68.1,63.1,96,80,58,29.94,29.80,6,3,12,0.31
2014-6-25,73.5,69.3,65.7,71.7,68.0,64.7,98,96,92,29.89,29.84,8,2,11,0.22
2014-6-26,77.3,70.2,62.3,68.8,64.5,60.2,97,83,57,30.02,29.87,8,2,11,0.00
2014-6-27,82.3,69.8,57.1,68.0,59.8,52.9,97,74,45,30.15,30.02,8,2,10,0.00
2014-6-28,86.3,73.5,57.3,72.3,64.1,55.9,97,75,48,30.20,30.10,7,2,10,0.00
2014-6-29,85.6,75.6,68.2,76.0,68.7,62.3,96,80,63,30.12,29.95,7,2,17,0.48
2014-6-30,88.3,78.5,67.7,75.9,70.5,66.2,96,78,53,29.97,29.79,4,2,10,0.08
2014-7-1,88.5,80.0,71.7,76.9,70.6,66.6,92,74,50,29.79,29.63,7,3,15,0.00
2014-7-2,85.6,75.5,68.8,74.6,69.2,64.3,95,82,60,29.89,29.69,5,2,10,0.18
2014-7-3,75.1,69.1,65.3,69.1,66.1,62.4,96,90,79,29.97,29.87,5,1,9,0.11
2014-7-4,71.4,64.6,58.5,62.7,55.5,49.9,92,74,49,30.16,29.97,6,3,15,0.00
2014-7-5,78.1,67.1,53.2,61.6,53.4,47.3,92,64,41,30.20,30.07,6,2,10,0.00
2014-7-6,82.1,70.5,55.2,61.4,55.1,48.7,83,59,41,30.07,29.80,6,3,14,0.00
2014-7-7,78.8,71.3,63.1,72.4,65.5,55.1,93,82,71,29.79,29.62,9,3,20,0.14
2014-7-8,83.2,72.4,66.1,72.8,67.3,61.2,96,84,67,29.69,29.49,7,3,35,0.42
2014-7-9,74.4,67.8,61.6,65.6,61.5,57.8,90,80,68,29.99,29.63,7,2,20,0.15
2014-7-10,72.5,63.7,52.9,59.5,54.5,49.5,96,74,51,30.18,29.99,8,2,11,0.00
2014-7-11,78.9,65.4,49.8,62.3,55.4,48.1,96,73,47,30.24,30.14,7,1,9,0.00
2014-7-12,84.7,70.7,58.8,69.8,62.6,56.8,96,77,53,30.17,29.99,8,1,10,0.00
2014-7-13,78.1,72.3,67.8,73.5,67.3,61.5,95,85,74,29.99,29.74,5,2,11,0.47
2014-7-14,77.5,70.6,66.4,71.0,66.2,60.8,95,86,73,29.88,29.75,6,2,8,0.01
2014-7-15,80.3,70.0,63.9,70.5,63.4,53.0,98,81,57,29.76,29.66,6,2,13,0.33
2014-7-16,72.1,64.4,55.1,62.6,56.9,52.5,94,77,63,29.93,29.75,6,2,13,0.00
2014-7-17,72.5,63.2,53.5,62.2,56.3,52.1,96,79,51,30.11,29.92,4,1,7,0.06
2014-7-18,75.7,64.7,53.3,59.8,55.1,51.0,94,73,45,30.23,30.11,8,1,10,0.00
2014-7-19,76.6,65.9,55.3,67.4,60.7,53.3,96,85,53,30.20,30.10,5,1,8,0.05
2014-7-20,78.2,70.2,63.3,67.1,64.4,61.3,95,83,59,30.11,30.03,5,1,10,0.05
2014-7-21,82.9,72.9,63.4,73.0,67.2,61.3,96,83,63,30.13,30.05,8,1,11,0.00
2014-7-22,87.5,74.5,61.9,75.3,68.7,61.0,98,84,57,30.11,29.90,5,1,7,0.00
2014-7-23,82.5,74.9,69.9,74.1,70.3,67.6,96,86,74,29.92,29.80,6,2,12,0.00
2014-7-25,76.6,68.7,58.6,62.3,58.4,55.1,92,72,48,29.97,29.94,7,2,10,0.00
2014-7-26,80.3,68.8,57.2,66.5,60.3,53.0,93,76,51,29.96,29.75,4,1,10,0.03
2014-7-27,81.7,73.5,66.8,71.4,66.8,63.9,96,80,58,29.75,29.56,6,2,11,0.23
2014-7-28,70.6,63.0,59.4,66.2,61.4,57.6,97,95,80,29.80,29.49,13,4,22,0.70
2014-7-29,67.8,60.9,54.3,60.1,56.0,53.2,97,85,66,29.96,29.80,3,1,15,0.00
2014-7-30,74.5,62.2,55.0,63.1,57.7,52.1,95,86,60,29.98,29.92,8,2,15,0.35
2014-7-31,75.6,63.8,54.3,64.8,59.0,52.8,98,85,58,30.07,29.96,5,1,9,0.26
2014-8-1,82.1,68.0,55.0,71.1,62.4,53.6,97,84,57,30.13,30.06,9,2,16,0.73
2014-8-2,81.8,68.8,60.5,71.4,64.8,59.4,98,88,64,30.11,30.02,5,1,7,0.03
2014-8-3,75.1,67.0,62.3,69.4,64.5,60.8,97,92,77,30.08,30.02,4,1,8,0.21
2014-8-4,80.7,69.5,62.6,70.1,65.8,61.7,98,89,60,30.08,30.00,6,1,8,0.05
2014-8-5,74.8,67.0,59.5,70.2,64.1,58.4,98,91,78,30.02,29.96,5,1,11,0.01
2014-8-6,73.5,66.4,59.7,65.6,58.9,50.6,97,79,47,29.96,29.93,8,1,12,0.00
2014-8-7,74.3,65.1,56.5,63.2,57.3,53.7,95,77,51,30.06,29.95,7,1,9,0.00
2014-8-8,75.0,64.3,53.3,63.9,57.4,51.6,96,80,55,30.14,30.06,5,1,10,0.00
2014-8-9,78.8,65.5,52.4,64.3,57.7,50.8,97,78,51,30.15,30.10,8,1,10,0.01
2014-8-10,80.7,67.6,52.7,66.3,59.3,51.1,97,77,49,30.16,30.06,7,1,8,0.00
2014-8-11,82.3,70.5,57.5,69.9,60.7,55.8,97,73,47,30.08,29.90,8,3,11,0.00
2014-8-12,71.0,68.1,63.9,67.0,63.8,58.0,96,87,65,29.90,29.72,9,5,15,1.32
2014-8-13,74.4,66.7,57.0,65.7,61.9,52.1,97,85,65,29.85,29.67,7,3,15,0.20
2014-8-14,67.8,59.6,54.1,55.6,52.4,49.1,92,78,59,29.88,29.81,6,2,11,0.04
2014-8-15,70.2,61.2,53.3,56.0,52.5,49.3,92,74,50,29.92,29.86,7,3,13,0.01
2014-8-16,70.6,62.2,52.8,61.6,56.0,50.0,96,81,64,29.92,29.80,10,2,14,0.19
2014-8-17,69.5,63.8,59.1,63.8,59.6,56.4,95,87,71,29.95,29.80,5,2,11,0.01
2014-8-18,69.5,60.8,50.6,59.8,56.0,49.2,97,85,66,29.97,29.87,7,2,8,0.00
2014-8-19,78.1,62.0,45.7,69.0,57.4,44.4,98,86,68,29.90,29.81,6,2,10,0.00
2014-8-20,77.1,67.0,57.3,71.0,64.8,56.5,98,93,75,29.92,29.83,5,1,6,0.20
2014-8-21,78.0,69.1,61.3,73.1,67.0,60.6,99,93,76,29.95,29.89,6,1,11,0.84
2014-8-22,79.6,69.1,61.0,72.5,66.3,60.4,99,91,70,29.98,29.93,9,2,13,0.88
2014-8-23,73.7,68.2,62.1,67.9,65.0,60.9,98,90,78,30.11,29.97,6,2,12,0.00
2014-8-24,77.4,66.9,57.9,66.2,61.7,57.1,98,85,59,30.18,30.10,6,1,8,0.01
2014-8-25,80.3,68.1,55.7,67.3,61.4,54.9,98,81,54,30.18,30.07,5,1,9,0.00
2014-8-26,84.2,71.9,56.6,72.3,64.9,55.6,98,80,60,30.10,29.96,4,1,8,0.00
2014-8-27,77.7,70.2,60.3,68.6,65.6,56.4,93,86,71,30.00,29.95,5,1,7,0.00
2014-8-28,67.8,61.7,54.0,59.9,54.1,49.1,95,78,55,30.11,29.98,6,2,12,0.00
2014-8-29,72.5,61.0,48.5,61.1,54.6,47.5,98,81,57,30.20,30.10,5,1,8,0.00
2014-8-30,83.7,70.7,56.2,72.7,63.5,53.4,95,79,59,30.12,29.92,7,4,12,0.00
2014-8-31,77.6,73.5,68.1,72.0,69.6,66.0,96,88,81,29.95,29.89,7,2,12,0.22
2014-9-1,84.3,74.3,64.9,74.8,69.3,63.4,97,85,64,29.96,29.80,5,1,9,0.00
2014-9-2,83.4,73.0,63.7,73.5,69.0,62.6,97,88,65,29.86,29.74,7,1,11,0.29
2014-9-3,78.8,68.9,60.8,65.6,62.5,59.5,98,82,55,30.07,29.86,3,1,6,0.01
2014-9-4,84.3,70.4,57.4,70.6,64.1,56.6,98,83,51,30.09,30.00,5,1,10,0.01
2014-9-5,89.7,76.4,63.1,74.2,68.0,61.9,97,77,52,30.07,29.85,6,2,12,0.00
2014-9-6,73.0,66.9,57.6,68.0,63.0,53.4,96,87,75,30.03,29.80,6,2,10,0.12
2014-9-7,70.3,59.5,49.8,59.8,53.5,48.6,96,81,62,30.23,30.03,7,2,10,0.00
2014-9-8,75.4,60.8,45.2,61.4,53.7,44.4,98,79,53,30.29,30.18,8,2,11,0.00
2014-9-9,74.8,65.0,54.4,64.9,58.6,51.4,92,80,67,30.21,30.05,7,3,14,0.00
2014-9-10,76.7,68.1,59.8,68.7,63.1,57.9,95,85,72,30.06,29.70,8,4,19,0.00
2014-9-11,74.2,65.9,56.4,70.6,60.6,51.9,94,83,76,30.08,29.59,9,4,21,0.12
2014-9-12,58.3,52.8,44.3,51.9,47.3,42.8,95,82,59,30.25,30.09,7,2,14,0.01
2014-9-13,66.6,51.5,43.2,59.3,48.1,41.3,97,89,72,30.28,30.01,11,2,17,0.13
2014-9-14,60.4,51.3,40.5,48.4,45.0,39.2,97,80,55,30.34,30.22,5,1,7,0.00
2014-9-15,68.2,56.8,46.0,54.5,49.7,43.8,96,79,53,30.23,30.02,5,1,8,0.04
2014-9-16,65.1,56.4,45.6,56.3,51.1,43.4,97,84,58,30.05,29.98,5,1,14,0.14
2014-9-17,67.7,54.4,42.1,52.9,47.6,40.7,97,80,52,30.04,29.94,5,1,11,0.01
2014-9-18,60.6,50.0,42.2,56.7,47.4,40.9,97,91,83,30.22,29.96,10,2,15,0.00
2014-9-19,60.3,50.1,36.5,49.6,42.5,33.8,97,77,53,30.36,30.13,6,2,11,0.00
2014-9-20,77.1,66.2,52.8,63.1,58.9,49.4,91,79,57,30.13,29.84,9,4,18,0.00
2014-9-21,78.8,67.7,59.8,68.4,60.0,52.5,92,77,48,29.83,29.52,9,4,15,0.08
2014-9-22,60.5,52.1,47.2,55.2,46.3,42.2,95,81,63,30.19,29.63,7,3,14,0.04
2014-9-23,70.1,55.9,41.5,54.4,48.1,38.9,94,77,52,30.39,30.19,4,1,14,0.00
2014-9-24,74.4,59.8,44.7,59.2,52.4,43.4,97,79,53,30.52,30.39,7,2,10,0.00
2014-9-25,69.8,59.4,49.5,58.9,53.6,47.3,96,82,58,30.43,30.28,5,1,8,0.00
2014-9-26,74.2,57.9,44.9,61.5,52.5,43.7,98,84,59,30.32,30.23,6,1,8,0.01
2014-9-27,75.8,60.4,47.5,62.8,55.1,46.2,97,84,60,30.29,30.19,5,1,7,0.00
2014-9-28,78.5,61.8,47.8,63.4,56.2,46.7,98,84,55,30.19,30.02,6,1,8,0.01
2014-9-29,78.0,63.0,51.3,64.4,56.7,49.9,98,82,52,30.01,29.86,8,1,9,0.00
2014-9-30,75.2,61.4,50.6,65.0,57.3,49.3,97,87,58,29.96,29.84,9,2,12,0.07
2014-10-1,69.6,61.4,56.2,63.1,59.2,54.8,98,93,76,30.08,29.95,7,1,11,0.01
2014-10-2,72.6,61.4,52.4,63.8,57.3,51.6,98,87,66,30.12,30.01,6,2,10,0.00
2014-10-3,72.1,63.9,56.2,61.1,57.7,53.4,92,81,66,30.01,29.56,13,7,20,0.07
2014-10-4,65.5,55.3,39.8,60.4,49.8,36.8,95,82,49,29.69,29.47,8,3,19,0.23
2014-10-5,55.1,46.2,37.2,46.3,39.5,33.0,92,78,66,29.88,29.67,7,3,16,0.00
2014-10-6,67.2,55.3,43.8,53.7,45.1,35.8,86,69,53,29.88,29.75,9,5,17,0.07
2014-10-7,67.7,61.9,57.4,54.6,51.1,45.3,88,69,46,29.86,29.66,10,5,18,0.02
2014-10-8,62.8,55.9,48.2,55.1,46.3,33.8,91,72,47,29.88,29.61,10,4,20,0.02
2014-10-9,61.6,51.2,38.2,42.2,38.6,35.4,93,64,40,30.06,29.87,10,3,18,0.00
2014-10-10,58.7,47.6,40.1,44.7,41.2,37.1,95,80,53,30.12,30.05,7,2,15,0.00
2014-10-11,56.2,45.8,35.5,46.4,41.2,34.2,96,85,61,30.22,30.08,5,1,11,0.00
2014-10-12,58.6,42.8,30.8,43.1,36.3,29.8,97,80,47,30.31,30.17,6,1,10,0.00
2014-10-13,70.4,56.5,38.9,59.6,51.1,36.5,93,83,67,30.17,30.04,8,4,13,0.04
2014-10-14,80.3,70.7,60.5,65.4,61.8,56.9,89,75,55,30.04,29.82,14,7,27,0.00
2014-10-15,72.4,66.2,60.6,66.3,63.0,58.9,97,90,74,29.85,29.74,9,3,18,0.32
2014-10-16,69.5,62.3,57.2,61.5,56.9,51.9,98,83,63,29.74,29.58,6,2,18,0.06
2014-10-17,66.5,60.0,55.2,56.4,52.5,49.5,91,77,59,29.62,29.51,11,4,25,0.02
2014-10-18,59.9,52.6,43.7,54.1,48.7,41.2,94,87,77,29.87,29.49,8,4,15,0.12
2014-10-19,45.2,39.9,32.0,41.2,34.0,29.9,93,80,61,30.08,29.87,8,3,14,0.03
2014-10-20,53.9,46.2,32.1,46.9,40.8,30.3,95,82,63,30.03,29.83,6,2,13,0.05
2014-10-21,56.1,50.6,47.1,52.4,48.8,46.0,97,93,83,30.05,29.78,13,4,17,0.16
2014-10-22,50.4,48.1,46.9,46.1,44.9,43.9,96,88,81,30.19,30.04,13,8,20,0.00
2014-10-23,57.2,51.2,46.9,50.0,45.1,41.9,92,80,63,30.11,29.96,11,6,17,0.00
2014-10-24,60.7,51.3,45.3,49.2,44.2,38.6,95,78,48,29.98,29.90,7,3,14,0.00
2014-10-25,66.9,54.8,44.8,53.8,48.5,42.8,96,80,52,29.90,29.53,9,3,17,0.17
2014-10-26,51.5,49.2,46.1,45.6,41.9,39.9,84,76,70,29.88,29.58,8,5,23,0.01
2014-10-27,58.7,48.5,39.1,45.4,40.4,36.2,92,75,52,30.04,29.85,6,2,23,0.00
2014-10-28,79.7,64.2,51.5,61.4,53.9,41.8,94,71,43,29.85,29.68,10,4,22,0.18
2014-10-29,58.8,52.0,47.2,56.2,45.0,41.3,91,77,66,29.95,29.80,8,3,14,0.00
2014-10-30,48.6,44.2,38.0,42.2,38.6,35.8,93,81,68,30.06,29.95,5,3,12,0.00
2014-10-31,50.5,43.6,37.0,41.4,39.0,35.1,96,85,64,30.02,29.91,6,2,11,0.01
2014-11-1,43.8,40.3,37.8,41.2,37.7,34.9,94,90,84,30.11,29.96,13,8,17,0.05
2014-11-2,41.5,38.6,35.5,35.5,29.5,25.4,90,70,56,30.22,30.10,14,8,25,0.01
2014-11-3,56.2,48.6,39.3,40.3,29.9,20.5,70,50,26,30.18,30.03,8,4,16,0.00
2014-11-4,69.9,58.8,49.4,51.1,37.6,27.3,80,47,24,30.07,29.84,8,4,13,0.00
2014-11-5,58.3,49.6,35.0,51.8,40.9,33.3,94,73,49,30.12,29.89,11,5,20,0.01
2014-11-6,43.5,40.1,32.8,42.0,38.6,31.5,97,95,89,30.09,29.73,6,2,18,0.38
2014-11-7,42.3,37.8,34.0,41.2,34.8,27.2,96,89,73,29.99,29.72,9,4,16,0.21
2014-11-8,46.8,38.5,30.1,38.3,31.7,26.6,89,77,60,29.99,29.73,8,4,15,0.01
2014-11-9,46.6,42.5,38.6,38.6,34.5,31.0,85,73,61,29.94,29.78,7,3,14,0.00
2014-11-10,57.1,48.9,39.2,41.4,37.3,32.8,86,65,52,30.07,29.88,9,3,15,0.00
2014-11-11,66.0,57.1,48.2,44.3,42.0,39.1,71,58,43,29.91,29.71,11,7,17,0.00
2014-11-12,59.9,42.8,35.4,50.3,32.5,24.3,83,67,56,30.15,29.71,12,6,24,0.00
2014-11-13,36.5,33.8,28.8,30.7,27.1,24.1,93,77,65,30.13,30.04,5,3,14,0.00
2014-11-14,36.4,30.5,26.3,29.2,24.5,21.6,86,78,65,30.23,30.04,9,5,16,0.00
2014-11-15,39.8,32.4,27.5,29.4,25.8,22.7,92,77,54,30.34,30.23,7,3,13,0.05
2014-11-16,40.7,35.5,30.6,31.6,25.3,21.4,81,67,49,30.27,29.97,8,3,16,0.00
2014-11-17,37.2,33.7,29.3,34.0,31.6,23.5,96,92,73,29.97,29.49,10,3,22,0.21
2014-11-18,28.9,21.0,17.8,25.0,15.1,11.9,87,78,69,29.98,29.66,13,9,26,0.00
2014-11-19,28.9,23.3,16.4,22.6,13.9,8.2,84,68,50,30.17,29.76,11,7,19,0.00
2014-11-20,31.6,26.8,22.2,26.9,19.9,13.7,90,76,51,30.00,29.76,11,6,19,0.00
2014-11-21,29.8,24.1,19.4,20.4,16.4,12.3,90,72,57,30.46,30.00,7,5,15,0.00
2014-11-22,47.0,35.9,24.1,42.5,26.9,14.4,89,71,34,30.41,29.98,10,5,17,0.06
2014-11-23,54.7,50.0,46.1,44.7,41.5,35.3,87,73,58,30.05,29.67,13,5,20,0.02
2014-11-24,70.2,57.5,43.2,55.4,49.2,38.1,92,75,51,29.68,29.26,17,9,29,0.03
2014-11-25,47.9,41.9,34.8,38.0,30.6,26.4,86,65,52,30.20,29.66,14,7,22,0.00
2014-11-26,35.7,33.3,30.3,30.3,28.2,25.7,95,82,69,30.24,30.03,7,2,21,0.00
2014-11-27,33.0,30.0,28.0,29.0,27.4,24.4,95,90,79,30.11,30.03,5,2,8,0.07
2014-11-28,28.8,25.8,23.1,25.9,20.2,16.3,92,79,68,30.26,30.10,9,4,15,0.01
2014-11-29,39.2,30.7,24.5,31.5,24.2,19.6,83,77,73,30.24,29.91,11,7,18,0.00
2014-11-30,57.5,48.2,38.3,52.8,40.6,30.4,91,75,68,29.91,29.81,12,8,19,0.09
2014-12-1,55.7,37.9,28.4,53.7,31.4,18.7,94,78,61,30.62,29.87,10,5,18,0.02
2014-12-2,40.1,29.3,22.4,36.7,23.2,16.3,93,78,63,30.66,30.08,12,6,23,0.11
2014-12-3,41.7,38.7,33.4,38.9,34.4,25.3,95,85,68,30.18,29.93,10,5,18,0.08
2014-12-4,34.7,29.1,19.9,25.1,22.0,18.1,93,75,58,30.52,30.18,8,4,16,0.00
2014-12-5,39.1,31.2,19.3,34.4,26.7,17.6,94,84,68,30.53,30.24,10,4,13,0.01
2014-12-6,39.5,36.7,35.1,38.5,34.4,26.4,97,91,70,30.49,30.18,11,4,14,0.35
2014-12-7,35.0,26.8,20.6,27.4,20.3,15.6,86,76,66,30.75,30.49,12,6,16,0.00
2014-12-8,33.9,28.1,20.2,28.0,20.0,14.9,86,72,47,30.66,30.26,14,7,19,0.00
2014-12-9,41.7,35.5,31.5,35.2,31.5,26.7,94,85,75,30.26,30.02,10,5,14,0.01
2014-12-10,35.6,30.2,28.5,32.7,28.9,27.5,97,95,88,30.02,29.73,11,7,16,0.00
2014-12-11,28.8,25.9,23.7,28.1,24.4,22.0,97,94,91,29.93,29.70,7,5,14,0.00
2014-12-12,31.4,27.8,23.7,30.0,25.9,22.0,96,93,87,30.10,29.92,8,4,15,0.00
2014-12-13,34.8,32.8,28.5,34.0,31.7,26.7,97,96,92,30.09,29.94,7,3,15,0.14
2014-12-14,37.9,35.7,33.7,35.8,34.4,32.3,97,95,92,30.07,29.92,5,2,11,0.18
2014-12-15,37.7,35.6,33.7,36.2,34.5,32.9,98,96,92,30.12,30.00,7,1,12,0.02
2014-12-16,41.5,38.6,35.0,39.5,36.8,33.4,96,93,85,30.00,29.75,10,5,13,0.27
2014-12-17,43.1,38.2,31.7,41.7,35.6,29.1,97,90,83,29.95,29.77,11,6,20,0.02
2014-12-18,33.0,31.5,28.4,30.0,28.3,26.6,94,88,84,30.07,29.94,10,6,21,0.01
2014-12-19,29.1,26.9,24.7,26.5,23.9,21.9,94,88,83,30.27,30.06,8,4,18,0.00
2014-12-20,31.2,29.2,26.8,25.3,24.0,22.2,85,81,74,30.32,30.24,5,2,11,0.00
2014-12-21,34.9,31.4,28.5,27.7,25.4,24.0,85,79,67,30.35,30.28,3,2,6,0.01
2014-12-22,37.5,32.8,27.1,32.1,26.7,22.9,85,78,71,30.32,30.09,11,6,17,0.01
2014-12-23,47.4,41.8,34.9,45.2,40.0,32.5,96,93,87,30.10,29.89,8,5,13,0.12
2014-12-24,57.3,50.8,46.6,53.4,48.2,44.3,94,91,85,29.90,29.22,12,7,17,0.17
2014-12-25,56.5,43.4,39.8,53.6,36.6,31.8,90,77,66,30.12,29.28,15,8,29,0.00
2014-12-26,46.9,39.6,29.6,34.2,31.6,27.2,91,73,57,30.24,30.10,8,4,21,0.00
2014-12-27,55.0,46.5,29.5,43.4,38.4,27.2,92,74,58,30.18,29.84,7,3,12,0.00
2014-12-28,53.5,38.9,31.4,44.6,32.8,25.4,91,79,59,30.11,29.82,8,5,15,0.10
2014-12-29,32.6,29.0,26.0,27.3,23.0,18.3,89,78,67,30.32,30.11,8,3,12,0.00
2014-12-30,26.6,22.5,19.7,23.5,18.4,10.2,93,84,65,30.48,30.32,8,2,14,0.05
2014-12-31,23.0,20.2,15.9,14.4,9.8,7.0,74,64,54,30.36,30.02,10,6,17,0.00
2015-1-1,32.4,26.1,19.5,27.4,16.8,12.0,92,69,46,30.03,29.83,12,6,20,0.00
2015-1-2,31.7,29.4,20.8,27.2,21.6,15.8,91,73,65,30.45,29.96,11,5,20,0.00